Time;durP1;ratioP1;P1;durP2;ratioP2;P2;SDS_P1;SDS_P2;PMS_P1;PMS_P2;Temp;Humidity;BMP_temperature;BMP_pressure;BME280_temperature;BME280_humidity;BME280_pressure;Samples;Min_cycle;Max_cycle;Signal;HPM_P1;HPM_P2
2022/04/01 00:00:23;;;;;;;7.30;2.45;;;;;;;2.91;38.15;99433.77;1698005;83;25876;-76
2022/04/01 00:02:51;;;;;;;4.33;2.10;;;;;;;2.92;38.15;99425.34;1692654;83;25916;-76
2022/04/01 00:05:17;;;;;;;4.37;2.05;;;;;;;2.92;38.12;99426.18;1691749;84;26001;-75
2022/04/01 00:07:44;;;;;;;4.90;2.80;;;;;;;2.91;37.99;99436.91;1693908;83;25920;-76
2022/04/01 00:10:11;;;;;;;6.05;3.02;;;;;;;2.87;37.89;99420.55;1692055;84;27478;-76
2022/04/01 00:12:43;;;;;;;5.08;2.70;;;;;;;2.85;38.26;99422.54;1680398;84;25988;-76
2022/04/01 00:15:12;;;;;;;5.65;2.70;;;;;;;2.86;38.35;99422.05;1692107;83;25987;-75
2022/04/01 00:17:41;;;;;;;5.08;2.45;;;;;;;2.84;38.11;99422.72;1687656;83;25764;-76
2022/04/01 00:20:09;;;;;;;5.42;2.70;;;;;;;2.82;38.11;99421.53;1692070;83;25940;-76
2022/04/01 00:22:36;;;;;;;4.47;2.45;;;;;;;2.82;38.37;99415.45;1693051;83;27473;-76
2022/04/01 00:25:05;;;;;;;8.50;3.20;;;;;;;2.82;38.39;99418.09;1691802;83;25927;-76
2022/04/01 00:27:31;;;;;;;4.75;2.55;;;;;;;2.82;38.49;99413.61;1684483;83;25366;-76
2022/04/01 00:29:58;;;;;;;4.10;2.70;;;;;;;2.82;38.77;99412.28;1700918;83;26527;-76
2022/04/01 00:32:24;;;;;;;6.55;2.95;;;;;;;2.81;38.35;99408.48;1685743;83;25767;-76
2022/04/01 00:34:51;;;;;;;8.73;2.83;;;;;;;2.79;38.68;99408.66;1691246;84;28717;-76
2022/04/01 00:37:18;;;;;;;6.15;2.55;;;;;;;2.79;38.61;99407.34;1696742;83;25660;-76
2022/04/01 00:39:45;;;;;;;8.33;2.70;;;;;;;2.77;38.75;99402.72;1698595;83;25784;-76
2022/04/01 00:42:12;;;;;;;4.67;2.70;;;;;;;2.78;38.60;99404.88;1692760;83;26136;-76
2022/04/01 00:44:39;;;;;;;4.85;2.20;;;;;;;2.76;38.62;99401.57;1684932;83;25931;-76
2022/04/01 00:47:10;;;;;;;5.05;2.55;;;;;;;2.74;38.87;99404.84;1696939;83;27442;-75
2022/04/01 00:49:38;;;;;;;3.17;1.98;;;;;;;2.73;38.84;99398.76;1699094;83;33295;-75
2022/04/01 00:52:09;;;;;;;3.35;2.27;;;;;;;2.71;39.09;99395.95;1696040;83;25913;-75
2022/04/01 00:54:36;;;;;;;;;;;;;;;2.69;38.95;99395.28;1690708;83;25743;-76
2022/04/01 00:57:05;;;;;;;3.00;2.02;;;;;;;2.68;39.09;99398.42;1687283;83;25836;-76
2022/04/01 00:59:35;;;;;;;4.35;2.33;;;;;;;2.66;39.19;99396.44;1686448;83;27460;-76
2022/04/01 01:02:04;;;;;;;3.60;2.10;;;;;;;2.66;39.46;99402.22;1689892;83;25828;-76
2022/04/01 01:04:30;;;;;;;6.08;2.52;;;;;;;2.65;39.26;99388.68;1702008;83;25781;-75
2022/04/01 01:06:59;;;;;;;3.42;2.00;;;;;;;2.66;39.38;99396.92;1664111;83;26543;-75
2022/04/01 01:09:26;;;;;;;5.37;2.15;;;;;;;2.66;39.35;99394.28;1685323;84;25920;-75
2022/04/01 01:11:54;;;;;;;6.55;2.55;;;;;;;2.66;39.46;99399.57;1686392;84;27507;-76
2022/04/01 01:14:30;;;;;;;4.28;2.17;;;;;;;2.62;39.38;99391.16;1697800;83;25908;-76
2022/04/01 01:16:59;;;;;;;3.37;2.27;;;;;;;2.61;39.48;99388.16;1696905;83;25953;-75
2022/04/01 01:19:28;;;;;;;6.12;2.40;;;;;;;2.60;39.56;99385.70;1690104;83;26562;-76
2022/04/01 01:21:57;;;;;;;4.60;2.50;;;;;;;2.60;39.51;99389.17;1690278;83;25897;-76
2022/04/01 01:24:27;;;;;;;2.70;2.02;;;;;;;2.58;39.62;99379.75;1679799;83;28404;-76
2022/04/01 01:26:55;;;;;;;3.83;2.70;;;;;;;2.57;39.49;99381.56;1695406;83;25722;-76
2022/04/01 01:29:28;;;;;;;3.20;2.15;;;;;;;2.57;39.62;99379.41;1693084;83;25963;-76
2022/04/01 01:32:01;;;;;;;4.85;2.33;;;;;;;2.56;39.57;99373.32;1685533;83;25765;-75
2022/04/01 01:34:32;;;;;;;5.00;2.52;;;;;;;2.56;39.76;99372.48;1679526;83;25821;-76
2022/04/01 01:36:57;;;;;;;5.65;2.25;;;;;;;2.55;39.55;99380.07;1691238;83;28331;-76
2022/04/01 01:39:24;;;;;;;6.33;2.30;;;;;;;2.52;39.58;99372.00;1692251;83;25849;-76
2022/04/01 01:41:53;;;;;;;4.90;2.25;;;;;;;2.52;39.69;99372.49;1702748;83;25778;-76
2022/04/01 01:44:21;;;;;;;5.12;2.52;;;;;;;2.51;39.76;99368.18;1694599;83;26611;-75
2022/04/01 01:46:48;;;;;;;6.62;2.25;;;;;;;2.50;39.76;99365.22;1694146;83;25824;-76
2022/04/01 01:49:15;;;;;;;5.72;2.47;;;;;;;2.47;39.82;99361.58;1695625;83;27465;-76
2022/04/01 01:54:46;;;;;;;3.22;2.00;;;;;;;2.45;40.00;99356.95;1669669;84;25950;-75
2022/04/01 01:57:16;;;;;;;3.72;2.20;;;;;;;2.44;40.00;99360.09;1652415;84;26134;-76
2022/04/01 01:59:44;;;;;;;3.25;2.15;;;;;;;2.41;39.88;99358.28;1672235;84;26022;-76
2022/04/01 02:02:11;;;;;;;4.97;2.67;;;;;;;2.39;39.95;99357.62;1693394;83;27101;-76
2022/04/01 02:04:39;;;;;;;5.20;2.20;;;;;;;2.37;40.35;99360.92;1705522;83;25954;-75
2022/04/01 02:07:07;;;;;;;5.08;2.58;;;;;;;2.37;40.33;99360.44;1701743;83;26081;-75
2022/04/01 02:09:34;;;;;;;2.80;1.98;;;;;;;2.34;40.13;99351.02;1687985;84;26596;-76
2022/04/01 02:12:02;;;;;;;4.15;2.50;;;;;;;2.30;40.03;99351.02;1676027;84;25303;-76
2022/04/01 02:14:30;;;;;;;4.20;2.12;;;;;;;2.29;40.46;99344.55;1675748;84;27467;-75
2022/04/01 02:16:57;;;;;;;6.67;2.87;;;;;;;2.28;40.57;99346.39;1674527;84;26384;-75
2022/04/01 02:19:24;;;;;;;5.62;2.55;;;;;;;2.27;40.67;99342.09;1686097;83;25620;-75
2022/04/01 02:21:54;;;;;;;4.85;2.50;;;;;;;2.27;40.48;99344.73;1680318;84;25765;-75
2022/04/01 02:24:22;;;;;;;3.52;2.33;;;;;;;2.25;40.43;99337.47;1688560;84;25834;-75
2022/04/01 02:26:48;;;;;;;4.30;2.17;;;;;;;2.21;40.78;99341.42;1674847;84;27458;-75
2022/04/01 02:29:18;;;;;;;2.58;1.77;;;;;;;2.21;40.91;99341.91;1689893;83;25930;-75
2022/04/01 02:32:05;;;;;;;3.55;2.42;;;;;;;2.21;40.68;99332.67;1688551;83;25340;-76
2022/04/01 02:34:48;;;;;;;3.22;2.20;;;;;;;2.17;40.80;99340.59;1683443;83;25815;-76
2022/04/01 02:37:15;;;;;;;3.83;2.10;;;;;;;2.16;40.97;99332.36;1695476;83;25916;-76
2022/04/01 02:39:41;;;;;;;3.35;1.92;;;;;;;2.15;40.90;99346.05;1693056;83;27557;-76
2022/04/01 02:42:08;;;;;;;7.53;2.58;;;;;;;2.15;41.14;99332.02;1663572;84;25783;-75
2022/04/01 02:44:35;;;;;;;4.72;2.40;;;;;;;2.13;41.05;99337.95;1677145;84;25850;-76
2022/04/01 02:47:03;;;;;;;2.87;1.90;;;;;;;2.11;41.07;99327.56;1685423;84;26551;-76
2022/04/01 02:49:29;;;;;;;2.67;1.90;;;;;;;2.11;41.32;99331.53;1661080;84;25814;-76
2022/04/01 02:52:00;;;;;;;5.28;2.37;;;;;;;2.09;41.27;99329.55;1676063;84;27558;-76
2022/04/01 02:54:27;;;;;;;3.12;2.25;;;;;;;2.07;41.26;99323.59;1674972;84;25892;-76
2022/04/01 02:56:55;;;;;;;3.00;1.80;;;;;;;2.07;41.44;99322.28;1687903;83;25900;-75
2022/04/01 02:59:21;;;;;;;4.17;2.27;;;;;;;2.06;41.49;99317.97;1681354;84;26457;-76
2022/04/01 03:01:47;;;;;;;3.60;2.15;;;;;;;2.04;41.56;99309.88;1687712;83;26108;-76
2022/04/01 03:04:14;;;;;;;6.75;1.75;;;;;;;2.04;41.57;99319.95;1681349;84;27481;-76
2022/04/01 03:06:45;;;;;;;3.80;1.70;;;;;;;2.03;41.66;99312.20;1697036;83;25769;-75
2022/04/01 03:09:13;;;;;;;6.87;2.62;;;;;;;2.02;41.61;99327.70;1699693;83;26062;-76
2022/04/01 03:11:42;;;;;;;2.72;2.08;;;;;;;2.01;41.74;99320.78;1700143;83;27012;-75
2022/04/01 03:14:11;;;;;;;4.78;2.22;;;;;;;2.00;41.67;99317.80;1684297;83;26407;-76
2022/04/01 03:16:40;;;;;;;2.75;1.65;;;;;;;1.97;41.86;99318.11;1658686;83;27623;-76
2022/04/01 03:19:10;;;;;;;3.75;2.10;;;;;;;1.95;41.92;99307.72;1694607;83;25988;-76
2022/04/01 03:21:39;;;;;;;3.27;1.95;;;;;;;1.94;42.11;99306.09;1679282;83;25833;-76
2022/04/01 03:24:14;;;;;;;3.52;1.80;;;;;;;1.92;42.00;99323.91;1666212;83;26630;-75
2022/04/01 03:26:40;;;;;;;3.95;2.22;;;;;;;1.89;42.27;99318.11;1691992;82;25836;-75
2022/04/01 03:29:08;;;;;;;3.00;1.70;;;;;;;1.87;42.50;99300.28;1692044;82;27464;-76
2022/04/01 03:31:35;;;;;;;3.25;2.15;;;;;;;1.87;42.50;99300.28;1674240;84;25731;-76
2022/04/01 03:34:05;;;;;;;4.37;2.00;;;;;;;1.86;42.58;99295.49;1681965;84;25830;-76
2022/04/01 03:36:33;;;;;;;3.25;2.00;;;;;;;1.87;42.52;99302.92;1693792;83;26675;-76
2022/04/01 03:39:01;;;;;;;2.05;1.72;;;;;;;1.89;42.73;99299.63;1687565;83;25830;-75
2022/04/01 03:41:30;;;;;;;5.72;2.08;;;;;;;1.88;42.55;99299.31;1686903;83;28462;-76
2022/04/01 03:44:00;;;;;;;4.42;2.30;;;;;;;1.86;42.66;99309.21;1680147;84;25818;-75
2022/04/01 03:46:30;;;;;;;3.58;2.45;;;;;;;1.83;42.51;99302.92;1700147;83;25812;-75
2022/04/01 03:49:07;;;;;;;2.80;1.80;;;;;;;1.81;42.73;99308.37;1703193;83;25796;-76
2022/04/01 03:51:38;;;;;;;4.03;2.40;;;;;;;1.81;42.86;99310.19;1698969;83;25833;-75
2022/04/01 03:54:05;;;;;;;5.53;2.30;;;;;;;1.80;42.84;99304.55;1679711;84;27445;-75
2022/04/01 03:57:00;;;;;;;3.65;1.80;;;;;;;1.80;42.87;99308.03;1697836;83;25930;-75
2022/04/01 03:59:50;;;;;;;2.27;1.80;;;;;;;1.77;43.07;99311.02;1700603;83;25859;-75
2022/04/01 04:02:35;;;;;;;3.47;1.82;;;;;;;1.76;43.16;99304.06;1687292;83;26629;-75
2022/04/01 04:05:06;;;;;;;3.95;1.92;;;;;;;1.75;43.13;99309.03;1696198;82;26085;-76
2022/04/01 04:07:33;;;;;;;4.53;1.82;;;;;;;1.76;43.17;99308.52;1694923;83;28330;-75
2022/04/01 04:10:07;;;;;;;3.67;1.92;;;;;;;1.76;43.09;99313.30;1691220;84;25993;-75
2022/04/01 04:12:35;;;;;;;4.53;1.85;;;;;;;1.74;43.09;99311.81;1694335;83;25968;-76
2022/04/01 04:15:05;;;;;;;3.87;2.02;;;;;;;1.73;43.05;99306.22;1695149;84;25925;-75
2022/04/01 04:17:42;;;;;;;3.10;1.90;;;;;;;1.72;42.94;99300.10;1698585;83;25734;-76
2022/04/01 04:20:32;;;;;;;2.15;1.40;;;;;;;1.70;42.90;99316.59;1695360;83;27473;-76
2022/04/01 04:23:21;;;;;;;2.35;1.60;;;;;;;1.69;43.15;99303.57;1689531;84;26093;-75
2022/04/01 04:26:01;;;;;;;4.50;2.08;;;;;;;1.69;43.00;99308.33;1662880;84;25840;-76
2022/04/01 04:28:36;;;;;;;2.35;1.35;;;;;;;1.68;42.91;99311.98;1664534;84;26627;-76
2022/04/01 04:31:28;;;;;;;2.80;2.00;;;;;;;1.67;43.08;99312.14;1691048;84;25954;-76
2022/04/01 04:34:10;;;;;;;2.77;1.60;;;;;;;1.66;42.88;99295.97;1692118;83;27493;-75
2022/04/01 04:36:39;;;;;;;2.30;1.42;;;;;;;1.64;43.05;99307.17;1695784;83;25954;-75
2022/04/01 04:39:19;;;;;;;2.77;1.57;;;;;;;1.63;43.10;99302.39;1685645;84;25805;-75
2022/04/01 04:41:49;;;;;;;3.42;2.12;;;;;;;1.63;42.96;99314.75;1692406;84;26657;-76
2022/04/01 04:44:18;;;;;;;2.67;2.02;;;;;;;1.63;43.04;99316.06;1692252;84;25806;-75
2022/04/01 04:46:46;;;;;;;3.72;2.08;;;;;;;1.62;43.12;99319.22;1686438;84;27666;-75
2022/04/01 04:49:17;;;;;;;3.08;1.72;;;;;;;1.62;43.08;99323.19;1654114;84;25953;-76
2022/04/01 04:51:47;;;;;;;2.98;1.72;;;;;;;1.63;43.32;99319.54;1684533;83;25924;-75
2022/04/01 04:54:18;;;;;;;3.62;2.17;;;;;;;1.66;43.40;99328.95;1679331;84;25919;-75
2022/04/01 04:56:48;;;;;;;2.85;1.87;;;;;;;1.67;43.50;99322.70;1709757;83;25945;-75
2022/04/01 04:59:20;;;;;;;3.33;1.92;;;;;;;1.67;43.29;99325.34;1708007;83;28434;-75
2022/04/01 05:02:03;;;;;;;3.45;1.62;;;;;;;1.65;43.46;99326.00;1659878;84;25793;-75
2022/04/01 05:04:55;;;;;;;3.37;1.52;;;;;;;1.65;43.59;99316.24;1689813;83;25943;-75
2022/04/01 05:07:42;;;;;;;3.52;1.60;;;;;;;1.65;43.58;99316.77;1691656;83;26821;-75
2022/04/01 05:10:36;;;;;;;1.75;1.65;;;;;;;1.63;43.51;99320.86;1690561;83;25849;-75
2022/04/01 05:13:13;;;;;;;3.45;1.50;;;;;;;1.63;43.83;99320.86;1684999;83;28204;-75
2022/04/01 05:15:59;;;;;;;2.92;2.05;;;;;;;1.63;43.92;99331.42;1690069;83;25815;-75
2022/04/01 05:18:46;;;;;;;3.37;1.70;;;;;;;1.60;44.07;99316.41;1690193;83;25804;-75
2022/04/01 05:21:23;;;;;;;7.33;2.27;;;;;;;1.59;44.34;99334.05;1687279;83;25855;-75
2022/04/01 05:24:06;;;;;;;3.58;1.80;;;;;;;1.58;44.26;99326.30;1691071;83;25966;-75
2022/04/01 05:26:45;;;;;;;3.55;2.20;;;;;;;1.60;44.40;99332.24;1690880;83;27488;-75
2022/04/01 05:29:31;;;;;;;1.87;1.47;;;;;;;1.61;44.48;99329.44;1670733;84;25850;-75
2022/04/01 05:32:01;;;;;;;4.90;1.90;;;;;;;1.62;44.35;99315.27;1643856;84;25376;-75
2022/04/01 05:34:45;;;;;;;5.03;1.95;;;;;;;1.63;44.34;99318.22;1679271;84;26288;-75
2022/04/01 05:37:14;;;;;;;4.15;1.72;;;;;;;1.64;44.57;99325.16;1691397;82;25855;-75
2022/04/01 05:39:47;;;;;;;4.87;2.00;;;;;;;1.65;44.45;99329.44;1678342;82;27557;-75
2022/04/01 05:42:18;;;;;;;2.77;1.98;;;;;;;1.65;44.34;99322.04;1698285;82;25796;-75
2022/04/01 05:44:46;;;;;;;2.65;1.80;;;;;;;1.65;44.25;99340.00;1686355;83;26439;-75
2022/04/01 05:47:12;;;;;;;3.80;2.58;;;;;;;1.66;44.29;99339.52;1699722;83;25934;-75
2022/04/01 05:49:42;;;;;;;4.83;1.80;;;;;;;1.67;44.42;99336.70;1692546;82;26015;-75
2022/04/01 05:52:11;;;;;;;3.33;1.90;;;;;;;1.69;44.29;99338.69;1668461;83;27701;-75
2022/04/01 05:54:40;;;;;;;2.22;1.55;;;;;;;1.71;44.29;99333.27;1692335;83;26554;-75
2022/04/01 05:57:10;;;;;;;3.75;2.10;;;;;;;1.71;44.14;99332.75;1698995;82;25874;-75
2022/04/01 05:59:38;;;;;;;3.83;2.00;;;;;;;1.71;44.12;99329.31;1690472;83;26450;-75
2022/04/01 06:02:34;;;;;;;3.47;2.17;;;;;;;1.71;44.12;99334.07;1699170;83;25792;-75
2022/04/01 06:05:16;;;;;;;3.08;2.30;;;;;;;1.70;44.01;99337.72;1689336;83;27544;-75
2022/04/01 06:08:04;;;;;;;;;;;;;;;1.68;44.02;99327.81;1689501;83;25679;-74
2022/04/01 06:10:44;;;;;;;3.62;2.08;;;;;;;1.69;44.24;99339.20;1682739;83;25800;-75
2022/04/01 06:14:04;;;;;;;3.25;1.95;;;;;;;1.67;44.19;99346.45;1691394;83;25827;-75
2022/04/01 06:16:58;;;;;;;3.08;1.90;;;;;;;1.66;44.10;99331.11;1652399;83;25912;-74
2022/04/01 06:19:50;;;;;;;2.80;1.87;;;;;;;1.65;44.42;99342.64;1690231;83;27465;-74
2022/04/01 06:22:18;;;;;;;4.00;2.02;;;;;;;1.65;44.61;99345.28;1702356;83;25899;-75
2022/04/01 06:25:13;;;;;;;6.75;2.02;;;;;;;1.63;44.57;99341.14;1694800;83;26457;-75
2022/04/01 06:27:52;;;;;;;2.00;1.45;;;;;;;1.62;44.61;99340.34;1696205;83;25835;-75
2022/04/01 06:30:21;;;;;;;3.08;1.60;;;;;;;1.62;44.19;99336.38;1678985;83;25939;-75
2022/04/01 06:33:30;;;;;;;8.53;1.95;;;;;;;1.62;44.57;99351.38;1685004;83;27562;-75
2022/04/01 06:36:05;;;;;;;4.20;1.70;;;;;;;1.57;44.96;99351.86;1646479;85;25766;-75
2022/04/01 06:38:50;;;;;;;3.67;1.85;;;;;;;1.55;45.18;99341.47;1663008;83;25905;-75
2022/04/01 06:41:23;;;;;;;1.82;1.62;;;;;;;1.55;45.18;99344.11;1681602;83;25977;-75
2022/04/01 06:43:57;;;;;;;3.42;2.42;;;;;;;1.59;45.77;99344.61;1672958;83;25921;-75
2022/04/01 06:46:42;;;;;;;5.45;2.62;;;;;;;1.50;45.90;99323.95;1708650;82;27465;-75
2022/04/01 06:49:10;;;;;;;3.25;1.98;;;;;;;1.58;45.99;99335.53;1680387;83;26032;-75
2022/04/01 06:51:55;;;;;;;3.67;2.00;;;;;;;1.58;45.83;99340.33;1682999;83;26541;-75
2022/04/01 06:54:40;;;;;;;2.42;1.42;;;;;;;1.56;47.34;99352.86;1693497;83;25939;-75
2022/04/01 06:57:24;;;;;;;4.65;1.95;;;;;;;1.56;47.29;99326.47;1683858;83;26174;-75
2022/04/01 07:00:13;;;;;;;2.60;1.80;;;;;;;1.60;47.59;99338.84;1690356;83;28395;-75
2022/04/01 07:02:41;;;;;;;3.35;1.70;;;;;;;1.58;47.90;99331.89;1694345;83;26445;-75
2022/04/01 07:05:09;;;;;;;3.05;2.10;;;;;;;1.56;48.37;99336.51;1695212;83;25944;-75
2022/04/01 07:07:36;;;;;;;3.52;1.85;;;;;;;1.47;49.86;99341.94;1684640;83;25800;-75
2022/04/01 07:10:07;;;;;;;5.17;2.33;;;;;;;1.39;49.85;99370.93;1692835;83;25886;-75
2022/04/01 07:12:33;;;;;;;;;;;;;;;1.33;49.63;99336.76;1696597;83;26888;-75
2022/04/01 07:14:59;;;;;;;5.75;2.00;;;;;;;1.36;50.30;99337.77;1688427;83;25871;-75
2022/04/01 07:17:26;;;;;;;3.35;1.90;;;;;;;1.36;50.58;99336.45;1697197;83;25828;-75
2022/04/01 07:19:52;;;;;;;2.42;2.02;;;;;;;1.37;50.92;99339.89;1694209;83;26505;-75
2022/04/01 07:22:19;;;;;;;8.35;2.27;;;;;;;1.40;51.05;99339.59;1691151;83;25825;-75
2022/04/01 07:24:45;;;;;;;6.17;2.40;;;;;;;1.42;51.85;99344.22;1701685;83;27469;-76
2022/04/01 07:27:11;;;;;;;7.37;2.40;;;;;;;1.37;51.71;99338.09;1694113;83;26297;-75
2022/04/01 07:29:38;;;;;;;4.35;2.37;;;;;;;1.38;52.77;99342.88;1690611;83;25886;-75
2022/04/01 07:34:51;;;;;;;3.55;2.00;;;;;;;1.33;53.76;99356.55;1688709;83;25942;-75
2022/04/01 07:37:22;;;;;;;4.70;2.30;;;;;;;1.30;54.38;99356.05;1696061;83;27460;-75
2022/04/01 07:39:48;;;;;;;;;;;;;;;1.28;54.32;99342.99;1697479;83;25825;-75
2022/04/01 07:42:14;;;;;;;4.83;2.37;;;;;;;1.27;54.44;99351.91;1691265;83;25879;-75
2022/04/01 07:44:41;;;;;;;5.80;2.25;;;;;;;1.31;54.71;99342.69;1688950;83;26482;-75
2022/04/01 07:47:09;;;;;;;6.97;2.35;;;;;;;1.39;54.44;99349.83;1695688;83;25916;-75
2022/04/01 07:49:40;;;;;;;2.95;1.55;;;;;;;1.41;54.01;99366.32;1688188;83;27628;-76
2022/04/01 07:52:08;;;;;;;3.15;2.15;;;;;;;1.40;54.17;99344.38;1691943;83;25742;-75
2022/04/01 07:54:36;;;;;;;4.40;2.10;;;;;;;1.41;54.03;99352.61;1693678;83;25768;-75
2022/04/01 07:57:05;;;;;;;3.27;2.02;;;;;;;1.45;53.69;99349.98;1701167;83;25835;-75
2022/04/01 07:59:31;;;;;;;5.45;1.90;;;;;;;1.46;53.31;99338.46;1696421;83;26380;-75
2022/04/01 08:01:58;;;;;;;2.15;1.52;;;;;;;1.50;53.26;99344.23;1701779;83;28257;-75
2022/04/01 08:04:27;;;;;;;5.15;2.42;;;;;;;1.54;52.98;99356.12;1679944;83;26179;-75
2022/04/01 08:06:55;;;;;;;10.03;2.87;;;;;;;1.53;52.83;99335.53;1684533;84;25894;-74
2022/04/01 08:09:23;;;;;;;2.72;1.80;;;;;;;1.49;52.99;99339.96;1707809;82;26557;-75
2022/04/01 08:11:54;;;;;;;5.00;2.37;;;;;;;1.46;53.35;99337.14;1701365;83;25870;-75
2022/04/01 08:14:20;;;;;;;6.65;2.40;;;;;;;1.48;53.19;99338.30;1697686;83;28517;-75
2022/04/01 08:16:48;;;;;;;3.80;1.98;;;;;;;1.48;53.52;99343.57;1720645;82;26487;-75
2022/04/01 08:19:15;;;;;;;6.85;2.60;;;;;;;1.49;53.38;99342.11;1719441;83;26449;-75
2022/04/01 08:21:44;;;;;;;8.48;2.47;;;;;;;1.48;53.99;99342.25;1694990;83;25881;-75
2022/04/01 08:24:11;;;;;;;7.72;2.60;;;;;;;1.50;54.44;99343.75;1716100;83;26089;-75
2022/04/01 08:26:37;;;;;;;5.62;2.33;;;;;;;1.52;54.13;99346.22;1697633;83;27479;-75
2022/04/01 08:29:04;;;;;;;6.72;2.75;;;;;;;1.52;53.88;99357.61;1684421;84;25932;-76
2022/04/01 08:31:33;;;;;;;5.87;2.25;;;;;;;1.48;54.13;99347.05;1696702;83;26429;-75
2022/04/01 08:33:59;;;;;;;7.90;2.22;;;;;;;1.48;54.59;99351.00;1695809;83;25887;-75
2022/04/01 08:36:26;;;;;;;3.90;2.42;;;;;;;1.50;56.43;99359.58;1693177;83;25880;-75
2022/04/01 08:38:52;;;;;;;8.63;2.15;;;;;;;1.40;56.74;99355.42;1691362;83;28031;-75
2022/04/01 08:41:20;;;;;;;3.45;2.27;;;;;;;1.34;56.92;99360.02;1705240;83;25826;-75
2022/04/01 08:43:49;;;;;;;5.28;2.40;;;;;;;1.31;57.05;99341.38;1698661;83;25754;-75
2022/04/01 08:46:19;;;;;;;4.87;2.08;;;;;;;1.30;58.12;99358.69;1692231;83;25844;-75
2022/04/01 08:48:47;;;;;;;3.52;2.50;;;;;;;1.24;58.85;99361.95;1694265;83;25917;-75
2022/04/01 08:51:13;;;;;;;4.87;1.80;;;;;;;1.16;60.31;99365.36;1694395;83;27423;-75
2022/04/01 08:53:44;;;;;;;4.47;2.40;;;;;;;1.15;60.50;99357.62;1707829;83;25926;-75
2022/04/01 08:56:11;;;;;;;3.27;2.12;;;;;;;1.09;59.94;99363.01;1696704;83;26709;-75
2022/04/01 08:58:37;;;;;;;5.90;2.60;;;;;;;1.05;60.72;99365.62;1702400;83;26530;-76
2022/04/01 09:01:05;;;;;;;4.35;2.65;;;;;;;1.02;60.46;99367.28;1688091;83;25839;-75
2022/04/01 09:03:35;;;;;;;4.90;2.35;;;;;;;1.03;61.20;99361.48;1700172;82;28280;-76
2022/04/01 09:06:04;;;;;;;6.30;2.62;;;;;;;1.04;61.85;99363.16;1665459;84;25644;-75
2022/04/01 09:08:35;;;;;;;5.03;2.52;;;;;;;1.02;62.00;99359.37;1660477;85;25920;-76
2022/04/01 09:11:18;;;;;;;4.03;2.45;;;;;;;0.98;62.58;99351.44;1678128;85;25765;-76
2022/04/01 09:13:49;;;;;;;3.30;2.20;;;;;;;0.98;63.08;99354.08;1658137;85;25581;-76
2022/04/01 09:16:31;;;;;;;8.10;2.92;;;;;;;0.96;63.22;99353.41;1667786;84;28331;-75
2022/04/01 09:19:01;;;;;;;13.15;2.20;;;;;;;0.91;64.03;99352.20;1667945;84;25983;-75
2022/04/01 09:21:33;;;;;;;5.47;2.67;;;;;;;0.88;63.55;99360.44;1668692;84;25889;-76
2022/04/01 09:24:01;;;;;;;13.20;3.47;;;;;;;0.89;64.25;99362.91;1670557;84;26538;-75
2022/04/01 09:26:35;;;;;;;5.70;1.98;;;;;;;0.91;64.81;99364.06;1666406;85;25873;-76
2022/04/01 09:29:04;;;;;;;6.22;2.87;;;;;;;0.93;64.86;99362.93;1653955;85;27485;-75
2022/04/01 09:31:33;;;;;;;7.97;3.12;;;;;;;0.88;65.20;99360.44;1683054;84;25823;-75
2022/04/01 09:34:01;;;;;;;3.08;2.37;;;;;;;0.85;65.40;99360.73;1666058;84;25757;-75
2022/04/01 09:36:33;;;;;;;8.20;2.70;;;;;;;0.86;65.55;99356.62;1671103;84;25964;-76
2022/04/01 09:39:03;;;;;;;5.42;2.75;;;;;;;0.83;64.99;99352.16;1671123;84;25798;-75
2022/04/01 09:41:37;;;;;;;9.68;2.72;;;;;;;0.84;66.12;99353.80;1683768;84;27469;-76
2022/04/01 09:44:20;;;;;;;7.30;2.60;;;;;;;0.80;66.84;99337.48;1676913;84;25936;-76
2022/04/01 09:46:50;;;;;;;11.50;3.00;;;;;;;0.79;66.55;99340.59;1683223;84;25551;-76
2022/04/01 09:49:36;;;;;;;4.80;2.22;;;;;;;0.85;66.29;99340.48;1672377;84;26571;-75
2022/04/01 09:52:06;;;;;;;8.80;2.55;;;;;;;0.91;65.57;99343.81;1690328;84;25656;-76
2022/04/01 09:54:32;;;;;;;10.93;2.77;;;;;;;1.00;64.96;99346.83;1667559;85;26889;-76
2022/04/01 09:56:59;;;;;;;6.30;2.95;;;;;;;1.05;65.68;99347.17;1693865;84;26541;-75
2022/04/01 09:59:33;;;;;;;11.00;2.52;;;;;;;1.08;65.11;99342.91;1683898;83;25775;-75
2022/04/01 10:01:59;;;;;;;7.83;2.90;;;;;;;1.10;64.89;99347.54;1672367;84;26750;-75
2022/04/01 10:04:25;;;;;;;8.20;2.90;;;;;;;1.14;65.18;99340.13;1680135;84;25900;-75
2022/04/01 10:06:53;;;;;;;9.83;5.33;;;;;;;1.18;64.68;99335.70;1685775;84;27484;-75
2022/04/01 10:09:23;;;;;;;10.53;2.70;;;;;;;1.26;64.37;99339.69;1682303;84;25947;-75
2022/04/01 10:11:51;;;;;;;5.83;2.40;;;;;;;1.29;64.39;99339.87;1697914;83;25865;-75
2022/04/01 10:14:25;;;;;;;9.38;2.70;;;;;;;1.32;63.98;99340.88;1684991;83;25952;-75
2022/04/01 10:16:56;;;;;;;7.22;2.92;;;;;;;1.35;64.02;99329.52;1684672;83;25953;-75
2022/04/01 10:19:25;;;;;;;5.80;2.58;;;;;;;1.38;63.66;99322.61;1674765;83;27463;-75
2022/04/01 10:21:51;;;;;;;5.05;2.08;;;;;;;1.40;63.61;99339.59;1705898;83;26253;-75
2022/04/01 10:24:51;;;;;;;10.70;2.60;;;;;;;1.44;63.41;99337.80;1713898;81;25950;-75
2022/04/01 10:27:40;;;;;;;5.25;2.47;;;;;;;1.49;63.39;99333.36;1687878;83;25786;-76
2022/04/01 10:30:14;;;;;;;6.58;2.92;;;;;;;1.58;64.71;99364.56;1703916;83;25805;-75
2022/04/01 10:32:44;;;;;;;7.62;2.87;;;;;;;1.55;64.72;99344.11;1696070;83;27941;-75
2022/04/01 10:35:30;;;;;;;5.13;2.77;;;;;;;1.54;64.81;99337.16;1695714;83;26107;-75
2022/04/01 11:13:30;;;;;;;11.35;3.62;;;;;;;1.69;68.70;99322.84;1815794;78;25638;-75
2022/04/01 11:16:20;;;;;;;12.82;2.62;;;;;;;1.55;69.48;99315.56;1777258;78;25720;-75
2022/04/01 11:19:26;;;;;;;7.67;3.13;;;;;;;1.48;69.67;99315.37;1792899;78;27642;-75
2022/04/01 11:21:53;;;;;;;8.40;3.37;;;;;;;1.44;69.91;99319.33;1773571;80;25909;-75
2022/04/01 11:24:38;;;;;;;11.03;4.15;;;;;;;1.41;70.19;99317.00;1776863;78;25692;-75
2022/04/01 11:27:25;;;;;;;11.05;3.15;;;;;;;1.41;70.43;99324.11;1773603;78;25762;-75
2022/04/01 11:30:14;;;;;;;7.78;2.90;;;;;;;1.42;70.49;99321.30;1787116;78;25923;-75
2022/04/01 11:32:44;;;;;;;9.93;3.05;;;;;;;1.41;71.00;99317.00;1762314;78;28262;-75
2022/04/01 11:35:13;;;;;;;6.28;2.02;;;;;;;1.37;70.91;99311.71;1778222;79;33065;-75
2022/04/01 11:37:42;;;;;;;5.72;2.77;;;;;;;1.35;70.84;99293.06;1774857;80;26418;-75
2022/04/01 11:40:16;;;;;;;5.55;3.45;;;;;;;1.34;70.60;99305.94;1778499;79;25890;-75
2022/04/01 11:42:59;;;;;;;4.72;2.67;;;;;;;1.37;70.10;99306.92;1774090;80;25725;-75
2022/04/01 11:45:27;;;;;;;11.55;3.15;;;;;;;1.45;70.43;99313.05;1774417;79;26921;-75
2022/04/01 11:47:54;;;;;;;8.63;3.50;;;;;;;1.55;70.57;99318.20;1779556;79;25917;-75
2022/04/01 11:50:23;;;;;;;6.20;2.67;;;;;;;1.62;69.86;99307.34;1774516;80;25792;-75
2022/04/01 11:52:54;;;;;;;6.58;2.60;;;;;;;1.65;69.55;99307.00;1784721;79;25903;-75
2022/04/01 11:55:24;;;;;;;4.17;2.95;;;;;;;1.69;69.94;99314.13;1778913;80;25758;-75
2022/04/01 11:57:54;;;;;;;7.50;3.40;;;;;;;1.72;69.83;99319.90;1778475;78;28513;-75
2022/04/01 12:00:24;;;;;;;7.47;3.00;;;;;;;1.74;69.63;99307.36;1782839;78;26090;-75
2022/04/01 12:02:52;;;;;;;9.40;3.65;;;;;;;1.76;69.20;99317.75;1770947;78;25925;-75
2022/04/01 12:05:21;;;;;;;10.63;3.27;;;;;;;1.76;69.25;99305.39;1785846;78;25498;-75
2022/04/01 12:10:42;;;;;;;14.93;3.27;;;;;;;1.86;69.05;99298.13;1778621;79;27466;-75
2022/04/01 12:13:10;;;;;;;18.45;3.50;;;;;;;1.93;69.24;99297.82;1773813;80;26166;-75
2022/04/01 12:15:42;;;;;;;4.08;2.58;;;;;;;1.99;68.70;99298.48;1784751;78;25916;-75
2022/04/01 12:18:13;;;;;;;13.53;3.25;;;;;;;1.99;67.47;99299.00;1788041;78;25810;-75
2022/04/01 12:20:44;;;;;;;6.75;3.35;;;;;;;1.95;66.98;99304.25;1756765;80;26025;-75
2022/04/01 12:23:10;;;;;;;6.40;3.30;;;;;;;1.91;67.71;99296.33;1729718;81;27453;-75
2022/04/01 12:25:40;;;;;;;9.85;3.25;;;;;;;1.90;68.23;99296.84;1729636;81;25789;-75
2022/04/01 12:28:13;;;;;;;8.15;3.50;;;;;;;1.88;69.23;99326.52;1734356;81;25932;-75
2022/04/01 12:30:45;;;;;;;10.30;3.15;;;;;;;1.80;69.54;99308.52;1735095;81;25977;-75
2022/04/01 12:33:20;;;;;;;7.65;3.47;;;;;;;1.70;73.41;99309.16;1724182;81;26473;-75
2022/04/01 12:36:04;;;;;;;6.22;3.30;;;;;;;1.63;71.38;99312.94;1735733;81;27454;-75
2022/04/01 12:38:38;;;;;;;8.88;3.22;;;;;;;1.60;72.06;99310.64;1724223;82;26462;-78
2022/04/01 12:41:17;;;;;;;10.85;4.45;;;;;;;1.58;72.11;99310.47;1713198;81;25844;-77
2022/04/01 12:43:49;;;;;;;13.18;3.52;;;;;;;1.56;72.04;99310.64;1706333;82;26474;-75
2022/04/01 12:46:29;;;;;;;10.03;4.05;;;;;;;1.53;73.26;99306.98;1731027;82;25870;-75
2022/04/01 12:48:59;;;;;;;6.95;3.55;;;;;;;1.52;73.56;99310.11;1723400;82;28340;-75